sensor_id;sensor_type;location;lat;lon;timestamp;P1;durP1;ratioP1;P2;durP2;ratioP2
17496;SDS011;62150;43.582;1.456;2024-03-22T04:39:06;12.70;;;5.37;;
17496;SDS011;62150;43.582;1.456;2024-03-22T04:41:35;11.80;;;5.90;;
17496;SDS011;62150;43.582;1.456;2024-03-22T04:44:02;13.90;;;6.53;;
17496;SDS011;62150;43.582;1.456;2024-03-22T04:46:29;12.77;;;6.27;;
17496;SDS011;62150;43.582;1.456;2024-03-22T04:48:56;17.43;;;6.43;;
17496;SDS011;62150;43.582;1.456;2024-03-22T04:51:23;12.53;;;6.43;;
17496;SDS011;62150;43.582;1.456;2024-03-22T04:53:50;14.03;;;6.40;;
17496;SDS011;62150;43.582;1.456;2024-03-22T04:56:18;14.60;;;6.63;;
17496;SDS011;62150;43.582;1.456;2024-03-22T04:58:46;15.97;;;6.90;;
17496;SDS011;62150;43.582;1.456;2024-03-22T05:01:12;13.07;;;6.67;;
17496;SDS011;62150;43.582;1.456;2024-03-22T05:03:40;14.73;;;6.90;;
17496;SDS011;62150;43.582;1.456;2024-03-22T05:06:06;14.07;;;6.47;;
17496;SDS011;62150;43.582;1.456;2024-03-22T05:08:34;13.50;;;6.93;;
17496;SDS011;62150;43.582;1.456;2024-03-22T05:11:00;15.33;;;7.10;;
17496;SDS011;62150;43.582;1.456;2024-03-22T05:13:29;15.40;;;7.07;;
17496;SDS011;62150;43.582;1.456;2024-03-22T05:15:56;14.00;;;7.00;;
17496;SDS011;62150;43.582;1.456;2024-03-22T05:18:24;13.33;;;6.97;;
17496;SDS011;62150;43.582;1.456;2024-03-22T05:20:50;13.50;;;6.60;;
17496;SDS011;62150;43.582;1.456;2024-03-22T05:23:18;14.20;;;6.57;;
17496;SDS011;62150;43.582;1.456;2024-03-22T05:25:44;14.27;;;6.83;;
17496;SDS011;62150;43.582;1.456;2024-03-22T05:28:12;12.73;;;6.80;;
17496;SDS011;62150;43.582;1.456;2024-03-22T05:30:40;12.93;;;6.10;;
17496;SDS011;62150;43.582;1.456;2024-03-22T05:33:07;13.43;;;6.57;;
17496;SDS011;62150;43.582;1.456;2024-03-22T05:35:34;14.60;;;6.40;;
17496;SDS011;62150;43.582;1.456;2024-03-22T05:38:01;16.03;;;7.03;;
17496;SDS011;62150;43.582;1.456;2024-03-22T05:40:28;12.27;;;6.23;;
17496;SDS011;62150;43.582;1.456;2024-03-22T05:42:55;13.10;;;6.43;;
17496;SDS011;62150;43.582;1.456;2024-03-22T05:45:22;13.03;;;6.70;;
17496;SDS011;62150;43.582;1.456;2024-03-22T05:47:51;12.67;;;6.43;;
17496;SDS011;62150;43.582;1.456;2024-03-22T05:50:17;14.13;;;7.17;;
17496;SDS011;62150;43.582;1.456;2024-03-22T05:52:45;15.47;;;7.30;;
17496;SDS011;62150;43.582;1.456;2024-03-22T05:55:12;16.73;;;7.53;;
17496;SDS011;62150;43.582;1.456;2024-03-22T05:57:39;13.83;;;6.80;;
17496;SDS011;62150;43.582;1.456;2024-03-22T06:00:06;16.93;;;7.20;;
17496;SDS011;62150;43.582;1.456;2024-03-22T06:02:34;14.60;;;7.23;;
17496;SDS011;62150;43.582;1.456;2024-03-22T06:05:02;14.27;;;6.47;;
17496;SDS011;62150;43.582;1.456;2024-03-22T06:07:30;15.80;;;6.83;;
17496;SDS011;62150;43.582;1.456;2024-03-22T06:10:05;13.33;;;6.37;;
17496;SDS011;62150;43.582;1.456;2024-03-22T06:12:34;14.73;;;6.50;;
17496;SDS011;62150;43.582;1.456;2024-03-22T06:15:01;16.13;;;6.67;;
17496;SDS011;62150;43.582;1.456;2024-03-22T06:17:31;13.27;;;6.77;;
17496;SDS011;62150;43.582;1.456;2024-03-22T06:19:58;14.23;;;6.87;;
17496;SDS011;62150;43.582;1.456;2024-03-22T06:22:27;14.20;;;6.90;;
17496;SDS011;62150;43.582;1.456;2024-03-22T06:24:53;14.20;;;7.20;;
17496;SDS011;62150;43.582;1.456;2024-03-22T06:27:21;16.10;;;7.77;;
17496;SDS011;62150;43.582;1.456;2024-03-22T06:29:48;16.70;;;7.70;;
17496;SDS011;62150;43.582;1.456;2024-03-22T06:32:15;16.33;;;7.53;;
17496;SDS011;62150;43.582;1.456;2024-03-22T06:34:42;15.83;;;7.63;;
17496;SDS011;62150;43.582;1.456;2024-03-22T06:37:09;14.37;;;7.23;;
17496;SDS011;62150;43.582;1.456;2024-03-22T06:39:37;15.63;;;7.70;;
17496;SDS011;62150;43.582;1.456;2024-03-22T06:42:05;14.27;;;7.70;;
17496;SDS011;62150;43.582;1.456;2024-03-22T06:44:31;15.20;;;7.27;;
17496;SDS011;62150;43.582;1.456;2024-03-22T06:46:59;14.17;;;8.10;;
17496;SDS011;62150;43.582;1.456;2024-03-22T06:49:25;14.73;;;7.47;;
17496;SDS011;62150;43.582;1.456;2024-03-22T06:51:53;14.40;;;7.83;;
17496;SDS011;62150;43.582;1.456;2024-03-22T06:54:22;15.63;;;7.43;;
17496;SDS011;62150;43.582;1.456;2024-03-22T06:56:53;13.77;;;7.60;;
17496;SDS011;62150;43.582;1.456;2024-03-22T06:59:19;16.47;;;7.60;;
17496;SDS011;62150;43.582;1.456;2024-03-22T07:01:47;17.60;;;7.67;;
17496;SDS011;62150;43.582;1.456;2024-03-22T07:04:14;14.47;;;7.93;;
17496;SDS011;62150;43.582;1.456;2024-03-22T07:06:41;16.97;;;7.27;;
17496;SDS011;62150;43.582;1.456;2024-03-22T07:09:08;15.50;;;7.50;;
17496;SDS011;62150;43.582;1.456;2024-03-22T07:11:35;17.03;;;8.00;;
17496;SDS011;62150;43.582;1.456;2024-03-22T07:14:03;13.23;;;6.73;;
17496;SDS011;62150;43.582;1.456;2024-03-22T07:16:31;14.60;;;7.17;;
17496;SDS011;62150;43.582;1.456;2024-03-22T07:18:57;16.30;;;7.47;;
17496;SDS011;62150;43.582;1.456;2024-03-22T07:21:25;14.43;;;8.10;;
17496;SDS011;62150;43.582;1.456;2024-03-22T07:23:51;15.13;;;7.23;;
17496;SDS011;62150;43.582;1.456;2024-03-22T07:26:19;14.53;;;7.57;;
17496;SDS011;62150;43.582;1.456;2024-03-22T07:28:45;15.17;;;7.87;;
17496;SDS011;62150;43.582;1.456;2024-03-22T07:31:14;14.73;;;7.47;;
17496;SDS011;62150;43.582;1.456;2024-03-22T07:33:41;15.57;;;7.27;;
17496;SDS011;62150;43.582;1.456;2024-03-22T07:36:08;15.27;;;7.13;;
17496;SDS011;62150;43.582;1.456;2024-03-22T07:38:35;13.83;;;7.10;;
17496;SDS011;62150;43.582;1.456;2024-03-22T07:41:03;16.70;;;7.57;;
17496;SDS011;62150;43.582;1.456;2024-03-22T07:43:30;15.80;;;7.43;;
17496;SDS011;62150;43.582;1.456;2024-03-22T07:45:57;16.30;;;8.20;;
17496;SDS011;62150;43.582;1.456;2024-03-22T07:48:25;15.03;;;8.10;;
17496;SDS011;62150;43.582;1.456;2024-03-22T07:50:55;16.40;;;7.30;;
17496;SDS011;62150;43.582;1.456;2024-03-22T07:53:22;15.00;;;7.57;;
17496;SDS011;62150;43.582;1.456;2024-03-22T07:55:50;15.73;;;7.83;;
17496;SDS011;62150;43.582;1.456;2024-03-22T07:58:16;17.30;;;8.63;;
17496;SDS011;62150;43.582;1.456;2024-03-22T08:00:44;14.83;;;7.80;;
17496;SDS011;62150;43.582;1.456;2024-03-22T08:03:13;14.37;;;7.87;;
17496;SDS011;62150;43.582;1.456;2024-03-22T08:05:43;17.70;;;8.67;;
17496;SDS011;62150;43.582;1.456;2024-03-22T08:08:10;14.63;;;7.93;;
17496;SDS011;62150;43.582;1.456;2024-03-22T08:10:37;16.43;;;8.27;;
17496;SDS011;62150;43.582;1.456;2024-03-22T08:13:04;17.00;;;8.10;;
17496;SDS011;62150;43.582;1.456;2024-03-22T08:15:31;16.27;;;8.90;;
17496;SDS011;62150;43.582;1.456;2024-03-22T08:17:58;17.47;;;7.97;;
17496;SDS011;62150;43.582;1.456;2024-03-22T08:20:25;15.40;;;8.53;;
17496;SDS011;62150;43.582;1.456;2024-03-22T08:22:53;16.80;;;8.47;;
17496;SDS011;62150;43.582;1.456;2024-03-22T08:25:21;15.10;;;8.13;;
17496;SDS011;62150;43.582;1.456;2024-03-22T08:27:49;15.97;;;8.33;;
17496;SDS011;62150;43.582;1.456;2024-03-22T08:30:19;17.40;;;9.10;;
17496;SDS011;62150;43.582;1.456;2024-03-22T08:32:46;14.80;;;7.77;;
17496;SDS011;62150;43.582;1.456;2024-03-22T08:35:13;19.70;;;9.23;;
17496;SDS011;62150;43.582;1.456;2024-03-22T08:37:40;16.63;;;8.33;;
17496;SDS011;62150;43.582;1.456;2024-03-22T08:40:09;17.63;;;9.20;;
17496;SDS011;62150;43.582;1.456;2024-03-22T08:42:39;18.30;;;8.20;;
17496;SDS011;62150;43.582;1.456;2024-03-22T08:45:07;16.30;;;8.27;;
17496;SDS011;62150;43.582;1.456;2024-03-22T08:47:34;15.60;;;8.18;;
17496;SDS011;62150;43.582;1.456;2024-03-22T08:50:01;17.13;;;8.47;;
17496;SDS011;62150;43.582;1.456;2024-03-22T08:52:28;18.02;;;8.45;;
17496;SDS011;62150;43.582;1.456;2024-03-22T08:54:57;18.27;;;8.13;;
17496;SDS011;62150;43.582;1.456;2024-03-22T08:57:25;20.33;;;8.20;;
17496;SDS011;62150;43.582;1.456;2024-03-22T08:59:52;17.90;;;8.57;;
17496;SDS011;62150;43.582;1.456;2024-03-22T09:02:19;15.93;;;7.88;;
17496;SDS011;62150;43.582;1.456;2024-03-22T09:04:46;16.92;;;8.15;;
17496;SDS011;62150;43.582;1.456;2024-03-22T09:07:13;16.53;;;7.87;;
17496;SDS011;62150;43.582;1.456;2024-03-22T09:09:40;17.10;;;8.03;;
17496;SDS011;62150;43.582;1.456;2024-03-22T09:12:07;16.37;;;8.37;;
17496;SDS011;62150;43.582;1.456;2024-03-22T09:14:36;17.13;;;8.27;;
17496;SDS011;62150;43.582;1.456;2024-03-22T09:17:03;16.00;;;7.75;;
17496;SDS011;62150;43.582;1.456;2024-03-22T09:19:30;17.07;;;8.00;;
17496;SDS011;62150;43.582;1.456;2024-03-22T09:21:57;16.90;;;9.07;;
17496;SDS011;62150;43.582;1.456;2024-03-22T09:24:24;14.90;;;7.78;;
17496;SDS011;62150;43.582;1.456;2024-03-22T09:26:51;16.00;;;7.82;;
17496;SDS011;62150;43.582;1.456;2024-03-22T09:29:19;15.88;;;7.97;;
17496;SDS011;62150;43.582;1.456;2024-03-22T09:31:47;16.10;;;8.00;;
17496;SDS011;62150;43.582;1.456;2024-03-22T09:34:15;15.73;;;8.30;;
17496;SDS011;62150;43.582;1.456;2024-03-22T09:36:42;18.88;;;8.07;;
17496;SDS011;62150;43.582;1.456;2024-03-22T09:39:10;17.33;;;7.88;;
17496;SDS011;62150;43.582;1.456;2024-03-22T09:41:39;14.65;;;7.68;;
17496;SDS011;62150;43.582;1.456;2024-03-22T09:44:11;16.85;;;7.75;;
17496;SDS011;62150;43.582;1.456;2024-03-22T09:46:39;16.52;;;8.18;;
17496;SDS011;62150;43.582;1.456;2024-03-22T09:49:10;18.23;;;8.25;;
17496;SDS011;62150;43.582;1.456;2024-03-22T09:51:37;16.60;;;7.82;;
17496;SDS011;62150;43.582;1.456;2024-03-22T09:54:05;14.65;;;7.38;;
17496;SDS011;62150;43.582;1.456;2024-03-22T09:56:32;15.10;;;7.35;;
17496;SDS011;62150;43.582;1.456;2024-03-22T09:59:00;16.13;;;7.47;;
17496;SDS011;62150;43.582;1.456;2024-03-22T10:01:26;14.90;;;7.75;;
17496;SDS011;62150;43.582;1.456;2024-03-22T10:03:55;15.60;;;7.38;;
17496;SDS011;62150;43.582;1.456;2024-03-22T10:06:23;15.98;;;6.43;;
17496;SDS011;62150;43.582;1.456;2024-03-22T10:08:51;14.35;;;6.60;;
17496;SDS011;62150;43.582;1.456;2024-03-22T10:11:18;13.90;;;6.22;;
17496;SDS011;62150;43.582;1.456;2024-03-22T10:13:46;13.52;;;6.68;;
17496;SDS011;62150;43.582;1.456;2024-03-22T10:16:16;14.90;;;6.72;;
17496;SDS011;62150;43.582;1.456;2024-03-22T10:18:43;15.63;;;7.10;;
17496;SDS011;62150;43.582;1.456;2024-03-22T10:21:10;15.50;;;6.40;;
17496;SDS011;62150;43.582;1.456;2024-03-22T10:23:39;11.75;;;6.05;;
17496;SDS011;62150;43.582;1.456;2024-03-22T10:26:06;13.48;;;6.38;;
17496;SDS011;62150;43.582;1.456;2024-03-22T10:28:35;12.25;;;6.10;;
17496;SDS011;62150;43.582;1.456;2024-03-22T10:31:09;13.32;;;5.97;;
17496;SDS011;62150;43.582;1.456;2024-03-22T10:33:38;13.93;;;6.32;;
17496;SDS011;62150;43.582;1.456;2024-03-22T10:36:05;13.90;;;6.03;;
17496;SDS011;62150;43.582;1.456;2024-03-22T10:38:34;14.70;;;6.25;;
17496;SDS011;62150;43.582;1.456;2024-03-22T10:41:07;14.32;;;6.22;;
17496;SDS011;62150;43.582;1.456;2024-03-22T10:43:35;12.32;;;5.72;;
17496;SDS011;62150;43.582;1.456;2024-03-22T10:46:01;15.35;;;6.18;;
17496;SDS011;62150;43.582;1.456;2024-03-22T10:48:31;15.30;;;6.57;;
17496;SDS011;62150;43.582;1.456;2024-03-22T10:50:59;12.80;;;6.10;;
17496;SDS011;62150;43.582;1.456;2024-03-22T10:53:28;12.50;;;5.78;;
17496;SDS011;62150;43.582;1.456;2024-03-22T10:55:57;12.13;;;5.72;;
17496;SDS011;62150;43.582;1.456;2024-03-22T10:58:29;14.27;;;5.72;;
17496;SDS011;62150;43.582;1.456;2024-03-22T11:00:56;12.38;;;6.03;;
17496;SDS011;62150;43.582;1.456;2024-03-22T11:03:24;13.05;;;6.25;;
17496;SDS011;62150;43.582;1.456;2024-03-22T11:05:54;15.15;;;6.05;;
17496;SDS011;62150;43.582;1.456;2024-03-22T11:08:25;12.18;;;6.00;;
17496;SDS011;62150;43.582;1.456;2024-03-22T11:10:54;14.13;;;6.20;;
17496;SDS011;62150;43.582;1.456;2024-03-22T11:13:22;13.18;;;5.93;;
17496;SDS011;62150;43.582;1.456;2024-03-22T11:15:50;12.93;;;5.70;;
17496;SDS011;62150;43.582;1.456;2024-03-22T11:18:18;14.82;;;5.70;;
17496;SDS011;62150;43.582;1.456;2024-03-22T11:20:45;12.15;;;5.93;;
17496;SDS011;62150;43.582;1.456;2024-03-22T11:23:12;11.77;;;5.38;;
17496;SDS011;62150;43.582;1.456;2024-03-22T11:25:39;13.85;;;4.95;;
17496;SDS011;62150;43.582;1.456;2024-03-22T11:28:06;11.30;;;5.07;;
17496;SDS011;62150;43.582;1.456;2024-03-22T11:30:33;12.82;;;5.25;;
17496;SDS011;62150;43.582;1.456;2024-03-22T11:33:05;12.45;;;5.80;;
17496;SDS011;62150;43.582;1.456;2024-03-22T11:35:32;12.88;;;5.90;;
17496;SDS011;62150;43.582;1.456;2024-03-22T11:38:00;13.15;;;5.22;;
17496;SDS011;62150;43.582;1.456;2024-03-22T11:40:29;12.63;;;4.95;;
17496;SDS011;62150;43.582;1.456;2024-03-22T11:42:58;11.98;;;4.93;;
17496;SDS011;62150;43.582;1.456;2024-03-22T11:45:27;15.43;;;5.55;;
17496;SDS011;62150;43.582;1.456;2024-03-22T11:47:56;12.73;;;5.20;;
17496;SDS011;62150;43.582;1.456;2024-03-22T11:50:28;11.00;;;5.10;;
17496;SDS011;62150;43.582;1.456;2024-03-22T11:52:56;12.00;;;5.40;;
17496;SDS011;62150;43.582;1.456;2024-03-22T11:55:26;12.85;;;5.07;;
17496;SDS011;62150;43.582;1.456;2024-03-22T11:57:56;11.70;;;5.38;;
17496;SDS011;62150;43.582;1.456;2024-03-22T12:00:23;11.07;;;5.40;;
17496;SDS011;62150;43.582;1.456;2024-03-22T12:02:52;10.55;;;5.00;;
17496;SDS011;62150;43.582;1.456;2024-03-22T12:05:20;11.20;;;5.35;;
17496;SDS011;62150;43.582;1.456;2024-03-22T12:07:50;14.70;;;5.40;;
17496;SDS011;62150;43.582;1.456;2024-03-22T12:10:17;13.13;;;5.43;;
17496;SDS011;62150;43.582;1.456;2024-03-22T12:12:45;10.13;;;5.22;;
17496;SDS011;62150;43.582;1.456;2024-03-22T12:15:11;11.98;;;5.20;;
17496;SDS011;62150;43.582;1.456;2024-03-22T12:17:39;11.20;;;5.22;;
17496;SDS011;62150;43.582;1.456;2024-03-22T12:20:08;11.25;;;4.88;;
17496;SDS011;62150;43.582;1.456;2024-03-22T12:22:36;14.35;;;4.97;;
17496;SDS011;62150;43.582;1.456;2024-03-22T12:25:05;11.55;;;5.07;;
17496;SDS011;62150;43.582;1.456;2024-03-22T12:27:34;11.30;;;4.90;;
17496;SDS011;62150;43.582;1.456;2024-03-22T12:30:01;11.27;;;4.93;;
17496;SDS011;62150;43.582;1.456;2024-03-22T12:32:29;12.07;;;4.88;;
17496;SDS011;62150;43.582;1.456;2024-03-22T12:34:56;10.68;;;4.90;;
17496;SDS011;62150;43.582;1.456;2024-03-22T12:37:24;10.60;;;4.53;;
17496;SDS011;62150;43.582;1.456;2024-03-22T12:39:51;13.20;;;5.10;;
17496;SDS011;62150;43.582;1.456;2024-03-22T12:42:20;11.32;;;5.15;;
17496;SDS011;62150;43.582;1.456;2024-03-22T12:44:46;10.82;;;4.93;;
17496;SDS011;62150;43.582;1.456;2024-03-22T12:47:14;10.73;;;4.60;;
17496;SDS011;62150;43.582;1.456;2024-03-22T12:49:41;10.50;;;4.53;;
17496;SDS011;62150;43.582;1.456;2024-03-22T12:52:08;10.70;;;4.18;;
17496;SDS011;62150;43.582;1.456;2024-03-22T12:54:35;11.52;;;4.72;;
17496;SDS011;62150;43.582;1.456;2024-03-22T12:57:03;10.45;;;4.22;;
17496;SDS011;62150;43.582;1.456;2024-03-22T12:59:31;11.13;;;4.57;;
17496;SDS011;62150;43.582;1.456;2024-03-22T13:01:59;10.85;;;4.50;;
17496;SDS011;62150;43.582;1.456;2024-03-22T13:04:26;11.00;;;4.95;;
17496;SDS011;62150;43.582;1.456;2024-03-22T13:06:54;11.60;;;4.75;;
17496;SDS011;62150;43.582;1.456;2024-03-22T13:09:20;10.65;;;4.60;;
17496;SDS011;62150;43.582;1.456;2024-03-22T13:11:51;10.57;;;4.72;;
17496;SDS011;62150;43.582;1.456;2024-03-22T13:14:18;11.82;;;4.50;;
17496;SDS011;62150;43.582;1.456;2024-03-22T13:16:47;9.65;;;4.25;;
17496;SDS011;62150;43.582;1.456;2024-03-22T13:19:13;10.55;;;4.10;;
17496;SDS011;62150;43.582;1.456;2024-03-22T13:21:43;10.27;;;4.00;;
17496;SDS011;62150;43.582;1.456;2024-03-22T13:24:13;12.52;;;4.50;;
17496;SDS011;62150;43.582;1.456;2024-03-22T13:26:40;9.30;;;3.95;;
17496;SDS011;62150;43.582;1.456;2024-03-22T13:29:07;10.38;;;4.13;;
17496;SDS011;62150;43.582;1.456;2024-03-22T13:31:34;9.48;;;4.00;;
17496;SDS011;62150;43.582;1.456;2024-03-22T13:34:02;10.30;;;4.00;;
17496;SDS011;62150;43.582;1.456;2024-03-22T13:36:33;8.02;;;3.78;;
17496;SDS011;62150;43.582;1.456;2024-03-22T13:39:01;10.27;;;4.28;;
17496;SDS011;62150;43.582;1.456;2024-03-22T13:41:29;13.20;;;4.35;;
17496;SDS011;62150;43.582;1.456;2024-03-22T13:43:57;10.30;;;4.10;;
17496;SDS011;62150;43.582;1.456;2024-03-22T13:46:23;9.38;;;3.65;;
17496;SDS011;62150;43.582;1.456;2024-03-22T13:48:51;10.18;;;3.78;;
17496;SDS011;62150;43.582;1.456;2024-03-22T13:51:19;9.63;;;3.95;;
17496;SDS011;62150;43.582;1.456;2024-03-22T13:53:49;9.88;;;3.83;;
17496;SDS011;62150;43.582;1.456;2024-03-22T13:56:15;9.93;;;4.13;;
17496;SDS011;62150;43.582;1.456;2024-03-22T13:58:43;10.43;;;3.90;;
17496;SDS011;62150;43.582;1.456;2024-03-22T14:01:09;10.65;;;3.85;;
17496;SDS011;62150;43.582;1.456;2024-03-22T14:03:37;10.50;;;3.83;;
17496;SDS011;62150;43.582;1.456;2024-03-22T14:06:03;10.00;;;3.72;;
17496;SDS011;62150;43.582;1.456;2024-03-22T14:08:32;10.05;;;4.10;;
17496;SDS011;62150;43.582;1.456;2024-03-22T14:10:59;11.30;;;3.92;;
17496;SDS011;62150;43.582;1.456;2024-03-22T14:13:26;9.02;;;3.85;;
17496;SDS011;62150;43.582;1.456;2024-03-22T14:15:53;10.43;;;3.80;;
17496;SDS011;62150;43.582;1.456;2024-03-22T14:18:20;10.90;;;3.90;;
17496;SDS011;62150;43.582;1.456;2024-03-22T14:20:48;10.35;;;3.83;;
17496;SDS011;62150;43.582;1.456;2024-03-22T14:23:15;8.88;;;3.95;;
17496;SDS011;62150;43.582;1.456;2024-03-22T14:25:43;9.38;;;3.70;;
17496;SDS011;62150;43.582;1.456;2024-03-22T14:28:14;11.88;;;3.88;;
17496;SDS011;62150;43.582;1.456;2024-03-22T14:30:40;10.23;;;3.92;;
17496;SDS011;62150;43.582;1.456;2024-03-22T14:33:08;13.43;;;3.90;;
17496;SDS011;62150;43.582;1.456;2024-03-22T14:35:34;11.63;;;3.78;;
17496;SDS011;62150;43.582;1.456;2024-03-22T14:38:03;11.18;;;3.60;;
17496;SDS011;62150;43.582;1.456;2024-03-22T14:40:29;10.93;;;3.20;;
17496;SDS011;62150;43.582;1.456;2024-03-22T14:43:03;10.18;;;3.22;;
17496;SDS011;62150;43.582;1.456;2024-03-22T14:45:30;13.23;;;3.92;;
17496;SDS011;62150;43.582;1.456;2024-03-22T14:47:57;10.30;;;3.20;;
17496;SDS011;62150;43.582;1.456;2024-03-22T14:50:24;10.57;;;3.85;;
17496;SDS011;62150;43.582;1.456;2024-03-22T14:52:51;12.07;;;4.10;;
17496;SDS011;62150;43.582;1.456;2024-03-22T14:55:18;10.55;;;3.67;;
17496;SDS011;62150;43.582;1.456;2024-03-22T14:57:45;9.88;;;3.47;;
17496;SDS011;62150;43.582;1.456;2024-03-22T15:00:14;8.45;;;3.78;;
17496;SDS011;62150;43.582;1.456;2024-03-22T15:02:42;10.23;;;3.45;;
17496;SDS011;62150;43.582;1.456;2024-03-22T15:05:09;12.40;;;3.67;;
17496;SDS011;62150;43.582;1.456;2024-03-22T15:07:37;11.07;;;3.40;;
17496;SDS011;62150;43.582;1.456;2024-03-22T15:10:04;10.85;;;3.80;;
17496;SDS011;62150;43.582;1.456;2024-03-22T15:12:32;8.82;;;3.40;;
17496;SDS011;62150;43.582;1.456;2024-03-22T15:14:58;10.93;;;3.60;;
17496;SDS011;62150;43.582;1.456;2024-03-22T15:17:27;9.23;;;3.47;;
17496;SDS011;62150;43.582;1.456;2024-03-22T15:19:55;10.02;;;3.42;;
17496;SDS011;62150;43.582;1.456;2024-03-22T15:22:23;9.57;;;3.42;;
17496;SDS011;62150;43.582;1.456;2024-03-22T15:24:51;9.55;;;3.72;;
17496;SDS011;62150;43.582;1.456;2024-03-22T15:27:18;10.32;;;3.50;;
17496;SDS011;62150;43.582;1.456;2024-03-22T15:29:45;10.13;;;3.53;;
17496;SDS011;62150;43.582;1.456;2024-03-22T15:32:12;12.57;;;3.83;;
17496;SDS011;62150;43.582;1.456;2024-03-22T15:34:41;10.15;;;4.10;;
17496;SDS011;62150;43.582;1.456;2024-03-22T15:37:07;11.30;;;3.92;;
17496;SDS011;62150;43.582;1.456;2024-03-22T15:39:35;11.18;;;4.15;;
17496;SDS011;62150;43.582;1.456;2024-03-22T15:42:01;9.80;;;3.55;;
17496;SDS011;62150;43.582;1.456;2024-03-22T15:44:29;9.63;;;3.58;;
17496;SDS011;62150;43.582;1.456;2024-03-22T15:46:56;10.82;;;3.90;;
17496;SDS011;62150;43.582;1.456;2024-03-22T15:49:25;9.15;;;3.83;;
17496;SDS011;62150;43.582;1.456;2024-03-22T15:51:53;11.85;;;4.07;;
17496;SDS011;62150;43.582;1.456;2024-03-22T15:54:21;10.15;;;4.07;;
17496;SDS011;62150;43.582;1.456;2024-03-22T15:56:48;10.63;;;3.50;;
17496;SDS011;62150;43.582;1.456;2024-03-22T15:59:15;9.80;;;3.92;;
17496;SDS011;62150;43.582;1.456;2024-03-22T16:01:42;9.43;;;3.60;;
17496;SDS011;62150;43.582;1.456;2024-03-22T16:04:09;9.23;;;3.60;;
17496;SDS011;62150;43.582;1.456;2024-03-22T16:06:36;9.98;;;3.42;;
17496;SDS011;62150;43.582;1.456;2024-03-22T16:09:05;11.45;;;3.80;;
17496;SDS011;62150;43.582;1.456;2024-03-22T16:11:34;10.95;;;3.40;;
17496;SDS011;62150;43.582;1.456;2024-03-22T16:14:02;8.60;;;3.40;;
17496;SDS011;62150;43.582;1.456;2024-03-22T16:16:28;10.15;;;3.30;;
17496;SDS011;62150;43.582;1.456;2024-03-22T16:22:18;10.55;;;3.45;;
17496;SDS011;62150;43.582;1.456;2024-03-22T16:24:47;10.10;;;3.65;;
17496;SDS011;62150;43.582;1.456;2024-03-22T16:27:14;9.48;;;3.30;;
17496;SDS011;62150;43.582;1.456;2024-03-22T16:29:41;8.70;;;3.35;;
17496;SDS011;62150;43.582;1.456;2024-03-22T16:32:08;10.02;;;3.28;;
17496;SDS011;62150;43.582;1.456;2024-03-22T16:34:37;13.82;;;3.72;;
17496;SDS011;62150;43.582;1.456;2024-03-22T16:37:04;10.82;;;3.40;;
17496;SDS011;62150;43.582;1.456;2024-03-22T16:39:32;9.95;;;3.20;;
17496;SDS011;62150;43.582;1.456;2024-03-22T16:42:00;10.32;;;3.25;;
17496;SDS011;62150;43.582;1.456;2024-03-22T16:44:28;9.55;;;3.40;;
17496;SDS011;62150;43.582;1.456;2024-03-22T16:46:54;9.55;;;3.20;;
17496;SDS011;62150;43.582;1.456;2024-03-22T16:49:22;9.38;;;3.15;;
17496;SDS011;62150;43.582;1.456;2024-03-22T16:51:49;11.60;;;3.55;;
17496;SDS011;62150;43.582;1.456;2024-03-22T16:54:17;10.50;;;3.58;;
17496;SDS011;62150;43.582;1.456;2024-03-22T16:56:44;10.27;;;3.65;;
17496;SDS011;62150;43.582;1.456;2024-03-22T16:59:13;11.05;;;3.40;;
17496;SDS011;62150;43.582;1.456;2024-03-22T17:01:41;8.65;;;3.40;;
17496;SDS011;62150;43.582;1.456;2024-03-22T17:04:08;11.18;;;3.40;;
17496;SDS011;62150;43.582;1.456;2024-03-22T17:06:35;10.27;;;3.67;;
17496;SDS011;62150;43.582;1.456;2024-03-22T17:09:03;11.45;;;4.10;;
17496;SDS011;62150;43.582;1.456;2024-03-22T17:11:30;8.68;;;3.50;;
17496;SDS011;62150;43.582;1.456;2024-03-22T17:13:58;9.10;;;3.67;;
17496;SDS011;62150;43.582;1.456;2024-03-22T17:16:26;10.93;;;3.72;;
17496;SDS011;62150;43.582;1.456;2024-03-22T17:18:54;11.48;;;3.80;;
17496;SDS011;62150;43.582;1.456;2024-03-22T17:21:21;9.85;;;3.65;;
17496;SDS011;62150;43.582;1.456;2024-03-22T17:23:49;11.55;;;3.72;;
17496;SDS011;62150;43.582;1.456;2024-03-22T17:26:16;9.40;;;3.67;;
17496;SDS011;62150;43.582;1.456;2024-03-22T17:28:44;10.82;;;3.72;;
17496;SDS011;62150;43.582;1.456;2024-03-22T17:31:11;11.07;;;3.90;;
17496;SDS011;62150;43.582;1.456;2024-03-22T17:33:40;9.88;;;3.42;;
17496;SDS011;62150;43.582;1.456;2024-03-22T17:36:09;11.65;;;3.83;;
17496;SDS011;62150;43.582;1.456;2024-03-22T17:38:36;12.43;;;3.97;;
17496;SDS011;62150;43.582;1.456;2024-03-22T17:41:03;10.27;;;3.50;;
17496;SDS011;62150;43.582;1.456;2024-03-22T17:43:31;9.05;;;3.45;;
17496;SDS011;62150;43.582;1.456;2024-03-22T17:45:57;10.80;;;3.60;;
17496;SDS011;62150;43.582;1.456;2024-03-22T17:48:25;12.30;;;3.70;;
17496;SDS011;62150;43.582;1.456;2024-03-22T17:50:53;10.77;;;3.33;;
17496;SDS011;62150;43.582;1.456;2024-03-22T17:53:21;9.65;;;3.58;;
17496;SDS011;62150;43.582;1.456;2024-03-22T17:55:47;9.40;;;3.08;;
17496;SDS011;62150;43.582;1.456;2024-03-22T17:58:15;11.65;;;3.25;;
17496;SDS011;62150;43.582;1.456;2024-03-22T18:00:41;9.85;;;3.42;;
17496;SDS011;62150;43.582;1.456;2024-03-22T18:03:09;11.38;;;3.45;;
17496;SDS011;62150;43.582;1.456;2024-03-22T18:05:35;11.02;;;3.30;;
17496;SDS011;62150;43.582;1.456;2024-03-22T18:08:05;10.73;;;3.25;;
17496;SDS011;62150;43.582;1.456;2024-03-22T18:10:31;8.45;;;3.22;;
17496;SDS011;62150;43.582;1.456;2024-03-22T18:12:59;9.18;;;3.08;;
17496;SDS011;62150;43.582;1.456;2024-03-22T18:15:26;10.20;;;3.28;;
17496;SDS011;62150;43.582;1.456;2024-03-22T18:17:53;9.73;;;3.38;;
17496;SDS011;62150;43.582;1.456;2024-03-22T18:20:20;8.75;;;3.00;;
17496;SDS011;62150;43.582;1.456;2024-03-22T18:22:49;8.30;;;3.08;;
17496;SDS011;62150;43.582;1.456;2024-03-22T18:25:18;8.73;;;3.40;;
17496;SDS011;62150;43.582;1.456;2024-03-22T18:27:44;9.00;;;3.25;;
17496;SDS011;62150;43.582;1.456;2024-03-22T18:30:12;10.77;;;3.50;;
17496;SDS011;62150;43.582;1.456;2024-03-22T18:32:39;9.65;;;3.05;;
17496;SDS011;62150;43.582;1.456;2024-03-22T18:35:06;9.38;;;3.30;;
17496;SDS011;62150;43.582;1.456;2024-03-22T18:37:33;7.25;;;3.30;;
17496;SDS011;62150;43.582;1.456;2024-03-22T18:40:01;9.43;;;3.10;;
17496;SDS011;62150;43.582;1.456;2024-03-22T18:42:30;10.52;;;3.42;;
17496;SDS011;62150;43.582;1.456;2024-03-22T18:44:57;14.95;;;4.00;;
17496;SDS011;62150;43.582;1.456;2024-03-22T18:47:25;11.10;;;3.58;;
17496;SDS011;62150;43.582;1.456;2024-03-22T18:49:53;11.50;;;4.13;;
17496;SDS011;62150;43.582;1.456;2024-03-22T18:52:19;11.25;;;3.67;;
17496;SDS011;62150;43.582;1.456;2024-03-22T18:54:49;9.35;;;3.80;;
17496;SDS011;62150;43.582;1.456;2024-03-22T18:57:21;9.15;;;3.60;;
17496;SDS011;62150;43.582;1.456;2024-03-22T18:59:50;10.07;;;4.07;;
17496;SDS011;62150;43.582;1.456;2024-03-22T19:02:17;10.90;;;4.05;;
17496;SDS011;62150;43.582;1.456;2024-03-22T19:04:45;11.48;;;4.30;;
17496;SDS011;62150;43.582;1.456;2024-03-22T19:07:11;11.35;;;4.50;;
17496;SDS011;62150;43.582;1.456;2024-03-22T19:09:39;10.30;;;4.40;;
17496;SDS011;62150;43.582;1.456;2024-03-22T19:12:05;12.02;;;4.47;;
17496;SDS011;62150;43.582;1.456;2024-03-22T19:14:34;10.07;;;4.40;;
17496;SDS011;62150;43.582;1.456;2024-03-22T19:17:02;10.55;;;4.25;;
17496;SDS011;62150;43.582;1.456;2024-03-22T19:19:29;11.77;;;4.32;;